createdAt,value
2018-08-21T00:00:29.154Z,90.18
2018-08-21T00:01:30.536Z,90.37
2018-08-21T00:02:31.914Z,89.89
2018-08-21T00:03:33.305Z,90.08
2018-08-21T00:04:34.685Z,90.08
2018-08-21T00:05:36.071Z,90.18
2018-08-21T00:06:37.464Z,90.28
2018-08-21T00:07:38.839Z,90.37
2018-08-21T00:08:40.218Z,90.08
2018-08-21T00:09:41.607Z,90.37
2018-08-21T00:10:42.996Z,90.37
2018-08-21T00:11:44.378Z,90.18
2018-08-21T00:12:45.763Z,90.28
2018-08-21T00:13:47.152Z,90.37
2018-08-21T00:14:48.538Z,90.18
2018-08-21T00:15:49.916Z,90.08
2018-08-21T00:16:51.312Z,91.05
2018-08-21T00:17:53.619Z,90.95
2018-08-21T00:18:55.010Z,91.42
2018-08-21T00:19:56.395Z,91.05
2018-08-21T00:20:57.783Z,91.33
2018-08-21T00:21:59.169Z,91.52
2018-08-21T00:23:00.563Z,91.72
2018-08-21T00:24:01.942Z,91.24
2018-08-21T00:25:03.327Z,91.72
2018-08-21T00:26:04.721Z,91.24
2018-08-21T00:27:06.109Z,91.91
2018-08-21T00:28:07.489Z,92.10
2018-08-21T00:29:08.880Z,92.29
2018-08-21T00:30:10.253Z,91.91
2018-08-21T00:31:11.656Z,91.81
2018-08-21T00:32:13.037Z,92.19
2018-08-21T00:33:14.427Z,92.10
2018-08-21T00:34:15.815Z,92.19
2018-08-21T00:35:17.210Z,92.48
2018-08-21T00:36:18.595Z,92.05
2018-08-21T00:37:19.976Z,92.44
2018-08-21T00:38:21.359Z,92.24
2018-08-21T00:39:23.602Z,92.54
2018-08-21T00:40:24.994Z,92.24
2018-08-21T00:41:26.384Z,92.24
2018-08-21T00:42:27.758Z,92.44
2018-08-21T00:43:29.144Z,92.15
2018-08-21T00:44:30.538Z,92.82
2018-08-21T00:45:31.922Z,92.54
2018-08-21T00:46:33.314Z,92.72
2018-08-21T00:47:34.701Z,92.72
2018-08-21T00:48:36.081Z,93.01
2018-08-21T00:49:37.481Z,92.91
2018-08-21T00:50:38.865Z,93.30
2018-08-21T00:51:40.246Z,93.88
2018-08-21T00:52:41.642Z,93.68
2018-08-21T00:53:43.023Z,93.49
2018-08-21T00:54:44.420Z,93.68
2018-08-21T00:55:45.807Z,94.17
2018-08-21T00:56:47.195Z,94.07
2018-08-21T00:57:48.590Z,93.49
2018-08-21T00:58:49.972Z,93.88
2018-08-21T00:59:51.353Z,93.26
2018-08-21T01:00:52.752Z,93.97
2018-08-21T01:01:54.137Z,93.88
2018-08-21T01:02:55.533Z,94.21
2018-08-21T01:03:56.914Z,93.88
2018-08-21T01:04:58.296Z,94.17
2018-08-21T01:05:59.670Z,94.07
2018-08-21T01:07:01.056Z,93.97
2018-08-21T01:08:02.445Z,94.02
2018-08-21T01:09:03.828Z,94.17
2018-08-21T01:10:05.210Z,94.26
2018-08-21T01:11:06.598Z,94.21
2018-08-21T01:12:07.982Z,93.49
2018-08-21T01:13:09.364Z,93.68
2018-08-21T01:14:10.752Z,93.88
2018-08-21T01:15:12.144Z,93.78
2018-08-21T01:16:13.526Z,93.88
2018-08-21T01:17:14.925Z,93.49
2018-08-21T01:18:16.308Z,93.26
2018-08-21T01:19:17.702Z,93.30
2018-08-21T01:20:19.095Z,93.11
2018-08-21T01:21:20.489Z,92.72
2018-08-21T01:22:21.865Z,93.11
2018-08-21T01:23:23.263Z,92.91
2018-08-21T01:24:24.647Z,92.91
2018-08-21T01:25:26.035Z,93.11
2018-08-21T01:26:27.425Z,93.30
2018-08-21T01:27:28.805Z,92.82
2018-08-21T01:28:30.194Z,93.01
2018-08-21T01:29:31.578Z,92.91
2018-08-21T01:30:32.965Z,92.91
2018-08-21T01:31:34.348Z,93.26
2018-08-21T01:32:35.742Z,93.30
2018-08-21T01:33:37.132Z,93.40
2018-08-21T01:34:38.518Z,93.11
2018-08-21T01:35:39.906Z,93.11
2018-08-21T01:36:41.294Z,92.54
2018-08-21T01:37:42.678Z,93.30
2018-08-21T01:38:44.065Z,93.30
2018-08-21T01:39:45.456Z,92.82
2018-08-21T01:40:46.850Z,93.11
2018-08-21T01:41:48.234Z,92.91
2018-08-21T01:42:49.625Z,93.26
2018-08-21T01:43:51.003Z,93.88
2018-08-21T01:44:52.383Z,93.63
2018-08-21T01:45:53.776Z,93.30
2018-08-21T01:46:55.161Z,93.49
2018-08-21T01:47:56.549Z,94.07
2018-08-21T01:48:57.923Z,94.02
2018-08-21T01:49:59.316Z,93.83
2018-08-21T01:51:00.697Z,93.97
2018-08-21T01:52:02.078Z,94.21
2018-08-21T01:53:03.459Z,93.93
2018-08-21T01:54:04.837Z,94.21
2018-08-21T01:55:06.226Z,94.69
2018-08-21T01:56:07.605Z,94.12
2018-08-21T01:57:08.993Z,94.31
2018-08-21T01:58:10.384Z,94.21
2018-08-21T01:59:11.760Z,94.31
2018-08-21T02:00:13.154Z,94.89
2018-08-21T02:01:14.532Z,94.50
2018-08-21T02:02:15.915Z,94.89
2018-08-21T02:03:17.308Z,95.36
2018-08-21T02:04:18.688Z,95.26
2018-08-21T02:05:20.074Z,95.84
2018-08-21T02:06:21.460Z,95.65
2018-08-21T02:07:22.848Z,95.75
2018-08-21T02:08:24.240Z,95.65
2018-08-21T02:09:25.620Z,95.56
2018-08-21T02:10:27.008Z,95.36
2018-08-21T02:11:28.397Z,95.26
2018-08-21T02:12:29.779Z,95.36
2018-08-21T02:13:31.161Z,95.75
2018-08-21T02:14:32.552Z,95.36
2018-08-21T02:15:33.933Z,95.79
2018-08-21T02:16:35.311Z,95.84
2018-08-21T02:17:36.700Z,95.98
2018-08-21T02:18:38.083Z,97.04
2018-08-21T02:19:39.477Z,96.94
2018-08-21T02:20:40.858Z,96.75
2018-08-21T02:21:42.248Z,96.75
2018-08-21T02:22:43.628Z,96.47
2018-08-21T02:23:45.011Z,97.42
2018-08-21T02:24:46.388Z,97.71
2018-08-21T02:25:47.778Z,97.33
2018-08-21T02:26:49.164Z,97.61
2018-08-21T02:27:50.551Z,97.42
2018-08-21T02:28:51.938Z,97.80
2018-08-21T02:29:53.329Z,98.19
2018-08-21T02:30:54.714Z,98.10
2018-08-21T02:31:56.276Z,97.90
2018-08-21T02:32:57.464Z,98.57
2018-08-21T02:33:58.847Z,98.57
2018-08-21T02:35:00.235Z,98.67
2018-08-21T02:36:01.614Z,99.05
2018-08-21T02:37:03.003Z,99.53
2018-08-21T02:38:04.387Z,99.82
2018-08-21T02:39:05.772Z,99.53
2018-08-21T02:40:07.151Z,99.34
2018-08-21T02:41:08.546Z,99.91
2018-08-21T02:42:09.929Z,99.99
2018-08-21T02:43:11.313Z,99.99
2018-08-21T02:44:12.693Z,99.99
2018-08-21T02:45:14.080Z,99.99
2018-08-21T02:46:15.463Z,99.99
2018-08-21T02:47:16.853Z,99.99
2018-08-21T02:48:18.243Z,99.99
2018-08-21T02:49:19.632Z,99.99
2018-08-21T02:50:21.012Z,99.99
2018-08-21T02:51:22.408Z,99.82
2018-08-21T02:52:23.783Z,99.99
2018-08-21T02:53:25.167Z,99.63
2018-08-21T02:54:26.551Z,99.63
2018-08-21T02:55:27.955Z,99.63
2018-08-21T02:56:29.323Z,99.63
2018-08-21T02:57:30.715Z,99.43
2018-08-21T02:58:32.094Z,99.58
2018-08-21T02:59:33.470Z,99.58
2018-08-21T03:00:35.483Z,99.48
2018-08-21T03:01:36.868Z,99.87
2018-08-21T03:02:38.244Z,99.48
2018-08-21T03:03:39.628Z,99.48
2018-08-21T03:04:41.016Z,99.77
2018-08-21T03:05:42.404Z,99.58
2018-08-21T03:06:43.793Z,99.99
2018-08-21T03:07:45.174Z,99.99
2018-08-21T03:08:46.559Z,99.99
2018-08-21T03:09:47.942Z,99.99
2018-08-21T03:10:49.326Z,99.99
2018-08-21T03:11:50.712Z,99.99
2018-08-21T03:12:52.102Z,99.99
2018-08-21T03:13:53.493Z,99.99
2018-08-21T03:14:54.875Z,99.99
2018-08-21T03:15:56.257Z,99.99
2018-08-21T03:16:57.641Z,99.99
2018-08-21T03:17:59.024Z,99.99
2018-08-21T03:19:00.405Z,99.99
2018-08-21T03:20:01.792Z,99.99
2018-08-21T03:21:03.178Z,99.99
2018-08-21T03:22:04.574Z,99.99
2018-08-21T03:23:05.950Z,99.99
2018-08-21T03:24:07.334Z,99.99
2018-08-21T03:25:08.708Z,99.99
2018-08-21T03:26:10.092Z,99.77
2018-08-21T03:27:11.480Z,99.87
2018-08-21T03:28:12.864Z,99.67
2018-08-21T03:29:14.253Z,99.58
2018-08-21T03:30:15.642Z,99.67
2018-08-21T03:31:17.031Z,99.96
2018-08-21T03:32:18.417Z,99.67
2018-08-21T03:33:19.803Z,99.38
2018-08-21T03:34:21.191Z,99.67
2018-08-21T03:35:22.574Z,99.38
2018-08-21T03:36:23.959Z,99.67
2018-08-21T03:37:25.345Z,99.87
2018-08-21T03:38:26.719Z,99.48
2018-08-21T03:39:28.109Z,99.38
2018-08-21T03:40:29.489Z,99.77
2018-08-21T03:41:30.884Z,99.67
2018-08-21T03:42:32.271Z,99.96
2018-08-21T03:43:33.659Z,99.87
2018-08-21T03:44:35.040Z,99.67
2018-08-21T03:45:36.422Z,99.96
2018-08-21T03:46:37.804Z,99.48
2018-08-21T03:47:39.191Z,99.87
2018-08-21T03:48:40.580Z,99.58
2018-08-21T03:49:41.976Z,99.99
2018-08-21T03:50:43.353Z,99.99
2018-08-21T03:51:44.741Z,99.99
2018-08-21T03:52:46.134Z,99.99
2018-08-21T03:53:47.511Z,99.99
2018-08-21T03:54:48.890Z,99.96
2018-08-21T03:55:50.283Z,99.99
2018-08-21T03:56:51.674Z,99.96
2018-08-21T03:57:53.064Z,99.87
2018-08-21T03:58:54.440Z,99.62
2018-08-21T03:59:55.825Z,99.77
2018-08-21T04:00:57.210Z,99.67
2018-08-21T04:01:58.594Z,99.99
2018-08-21T04:02:59.985Z,99.62
2018-08-21T04:04:01.370Z,99.43
2018-08-21T04:05:02.799Z,99.99
2018-08-21T04:06:04.143Z,99.81
2018-08-21T04:07:05.522Z,99.81
2018-08-21T04:08:06.915Z,99.52
2018-08-21T04:09:08.297Z,99.81
2018-08-21T04:10:09.709Z,99.81
2018-08-21T04:11:11.028Z,99.72
2018-08-21T04:12:12.414Z,99.43
2018-08-21T04:13:13.802Z,99.62
2018-08-21T04:14:15.198Z,99.81
2018-08-21T04:15:16.587Z,99.43
2018-08-21T04:16:17.967Z,99.24
2018-08-21T04:17:19.357Z,99.15
2018-08-21T04:18:20.746Z,99.43
2018-08-21T04:19:22.136Z,99.15
2018-08-21T04:20:23.524Z,99.99
2018-08-21T04:21:24.911Z,99.62
2018-08-21T04:22:26.310Z,99.43
2018-08-21T04:23:27.702Z,99.91
2018-08-21T04:24:29.097Z,99.43
2018-08-21T04:25:30.495Z,99.52
2018-08-21T04:26:31.883Z,99.43
2018-08-21T04:27:33.268Z,99.62
2018-08-21T04:28:34.671Z,99.52
2018-08-21T04:29:36.057Z,99.52
2018-08-21T04:30:37.437Z,99.52
2018-08-21T04:31:38.818Z,99.81
2018-08-21T04:32:40.223Z,99.52
2018-08-21T04:33:41.565Z,99.33
2018-08-21T04:34:42.947Z,99.52
2018-08-21T04:35:44.337Z,99.43
2018-08-21T04:36:45.714Z,99.43
2018-08-21T04:37:47.106Z,99.43
2018-08-21T04:38:48.493Z,99.62
2018-08-21T04:39:49.884Z,99.81
2018-08-21T04:40:51.277Z,99.10
2018-08-21T04:41:52.673Z,99.81
2018-08-21T04:42:54.057Z,99.99
2018-08-21T04:43:55.441Z,99.67
2018-08-21T04:44:56.832Z,99.62
2018-08-21T04:45:58.229Z,99.77
2018-08-21T04:46:59.611Z,99.77
2018-08-21T04:48:00.996Z,99.99
2018-08-21T04:49:02.394Z,99.38
2018-08-21T04:50:03.800Z,99.99
2018-08-21T04:51:05.174Z,99.29
2018-08-21T04:52:06.557Z,99.77
2018-08-21T04:53:07.950Z,99.67
2018-08-21T04:54:09.328Z,99.58
2018-08-21T04:55:10.726Z,99.58
2018-08-21T04:56:12.117Z,99.29
2018-08-21T04:57:13.506Z,99.77
2018-08-21T04:58:14.898Z,99.38
2018-08-21T04:59:16.287Z,99.77
2018-08-21T05:00:17.686Z,99.87
2018-08-21T05:01:19.069Z,99.99
2018-08-21T05:02:20.457Z,99.53
2018-08-21T05:03:21.854Z,99.67
2018-08-21T05:04:23.245Z,99.53
2018-08-21T05:05:24.638Z,99.91
2018-08-21T05:06:26.026Z,99.82
2018-08-21T05:07:27.414Z,99.91
2018-08-21T05:08:28.812Z,99.43
2018-08-21T05:09:30.190Z,99.91
2018-08-21T05:10:31.578Z,99.99
2018-08-21T05:11:32.968Z,99.53
2018-08-21T05:12:34.422Z,99.91
2018-08-21T05:13:35.755Z,99.82
2018-08-21T05:14:37.161Z,99.99
2018-08-21T05:15:38.535Z,99.82
2018-08-21T05:16:39.936Z,99.99
2018-08-21T05:17:41.313Z,99.63
2018-08-21T05:18:42.703Z,99.82
2018-08-21T05:19:44.093Z,99.53
2018-08-21T05:20:45.480Z,99.63
2018-08-21T05:21:46.876Z,99.99
2018-08-21T05:22:48.247Z,99.99
2018-08-21T05:23:49.630Z,99.91
2018-08-21T05:24:51.026Z,99.72
2018-08-21T05:25:52.410Z,99.82
2018-08-21T05:26:53.800Z,99.53
2018-08-21T05:27:55.186Z,99.15
2018-08-21T05:28:56.578Z,98.86
2018-08-21T05:29:57.974Z,98.86
2018-08-21T05:30:59.357Z,97.42
2018-08-21T05:32:00.742Z,97.90
2018-08-21T05:33:02.137Z,97.71
2018-08-21T05:34:03.530Z,98.10
2018-08-21T05:35:04.933Z,97.61
2018-08-21T05:36:06.318Z,97.80
2018-08-21T05:37:07.709Z,97.33
2018-08-21T05:38:09.094Z,97.52
2018-08-21T05:39:10.489Z,97.66
2018-08-21T05:40:11.875Z,97.80
2018-08-21T05:41:13.274Z,98.14
2018-08-21T05:42:14.673Z,97.61
2018-08-21T05:43:16.054Z,97.76
2018-08-21T05:44:17.471Z,97.85
2018-08-21T05:45:18.860Z,98.33
2018-08-21T05:46:20.248Z,97.85
2018-08-21T05:47:21.642Z,98.14
2018-08-21T05:48:23.028Z,98.14
2018-08-21T05:49:24.421Z,97.56
2018-08-21T05:50:25.816Z,97.85
2018-08-21T05:51:27.195Z,97.56
2018-08-21T05:52:28.585Z,97.95
2018-08-21T05:53:29.973Z,97.47
2018-08-21T05:54:31.365Z,97.56
2018-08-21T05:55:32.866Z,97.47
2018-08-21T05:56:34.091Z,97.76
2018-08-21T05:57:35.486Z,97.18
2018-08-21T05:58:36.872Z,96.89
2018-08-21T05:59:38.268Z,96.89
2018-08-21T06:00:39.658Z,96.27
2018-08-21T06:01:41.057Z,95.51
2018-08-21T06:02:42.440Z,95.51
2018-08-21T06:03:43.822Z,95.60
2018-08-21T06:04:45.219Z,94.64
2018-08-21T06:05:46.601Z,94.93
2018-08-21T06:06:47.995Z,94.84
2018-08-21T06:07:49.396Z,95.12
2018-08-21T06:08:50.799Z,94.54
2018-08-21T06:09:52.178Z,94.74
2018-08-21T06:10:53.570Z,94.35
2018-08-21T06:11:54.959Z,95.12
2018-08-21T06:12:56.344Z,94.21
2018-08-21T06:13:57.736Z,93.63
2018-08-21T06:14:59.131Z,92.96
2018-08-21T06:16:00.517Z,92.58
2018-08-21T06:17:01.908Z,92.29
2018-08-21T06:18:03.312Z,92.19
2018-08-21T06:19:04.733Z,91.72
2018-08-21T06:20:06.084Z,91.91
2018-08-21T06:21:07.486Z,91.33
2018-08-21T06:22:08.877Z,91.24
2018-08-21T06:23:10.260Z,90.95
2018-08-21T06:24:11.657Z,91.24
2018-08-21T06:25:13.050Z,90.90
2018-08-21T06:26:14.452Z,89.94
2018-08-21T06:27:15.839Z,89.94
2018-08-21T06:28:17.237Z,89.65
2018-08-21T06:29:18.635Z,89.07
2018-08-21T06:30:20.023Z,88.11
2018-08-21T06:31:21.420Z,88.11
2018-08-21T06:32:22.811Z,87.01
2018-08-21T06:33:24.207Z,85.85
2018-08-21T06:34:25.599Z,84.45
2018-08-21T06:35:26.987Z,82.29
2018-08-21T06:36:28.381Z,79.53
2018-08-21T06:37:29.779Z,77.75
2018-08-21T06:38:31.171Z,75.96
2018-08-21T06:39:32.569Z,74.26
2018-08-21T06:40:33.957Z,72.41
2018-08-21T06:41:35.353Z,70.38
2018-08-21T06:42:36.741Z,68.19
2018-08-21T06:43:38.136Z,66.69
2018-08-21T06:44:39.541Z,65.66
2018-08-21T06:45:40.943Z,64.63
2018-08-21T06:46:42.409Z,62.79
2018-08-21T06:47:43.732Z,62.05
2018-08-21T06:48:45.129Z,61.95
2018-08-21T06:49:46.529Z,61.79
2018-08-21T06:50:47.913Z,61.02
2018-08-21T06:51:49.320Z,60.44
2018-08-21T06:52:50.721Z,60.14
2018-08-21T06:53:52.113Z,58.53
2018-08-21T06:54:53.511Z,56.98
2018-08-21T06:55:54.911Z,56.88
2018-08-21T06:56:56.309Z,56.50
2018-08-21T06:57:57.715Z,56.11
2018-08-21T06:58:59.116Z,56.18
2018-08-21T07:00:00.565Z,56.25
2018-08-21T07:01:01.959Z,55.77
2018-08-21T07:02:03.356Z,57.09
2018-08-21T07:03:04.756Z,58.42
2018-08-21T07:04:06.177Z,59.58
2018-08-21T07:05:07.575Z,59.83
2018-08-21T07:06:08.982Z,60.99
2018-08-21T07:07:10.370Z,61.47
2018-08-21T07:08:11.780Z,62.31
2018-08-21T07:09:13.180Z,61.35
2018-08-21T07:10:14.570Z,60.68
2018-08-21T07:11:15.967Z,61.25
2018-08-21T07:12:17.378Z,61.06
2018-08-21T07:13:18.793Z,61.74
2018-08-21T07:14:20.184Z,60.45
2018-08-21T07:15:21.568Z,60.55
2018-08-21T07:16:23.628Z,60.74
2018-08-21T07:17:25.040Z,59.78
2018-08-21T07:18:26.456Z,59.48
2018-08-21T07:19:27.844Z,60.06
2018-08-21T07:20:29.239Z,60.35
2018-08-21T07:21:30.637Z,60.74
2018-08-21T07:22:32.036Z,60.90
2018-08-21T07:23:33.439Z,60.52
2018-08-21T07:24:34.846Z,60.71
2018-08-21T07:25:36.238Z,60.03
2018-08-21T07:26:37.630Z,59.75
2018-08-21T07:27:39.032Z,59.94
2018-08-21T07:28:40.438Z,59.87
2018-08-21T07:29:41.822Z,61.10
2018-08-21T07:30:43.229Z,61.71
2018-08-21T07:31:44.622Z,60.52
2018-08-21T07:32:46.011Z,59.97
2018-08-21T07:33:47.400Z,58.81
2018-08-21T07:34:48.758Z,58.11
2018-08-21T07:35:50.219Z,58.33
2018-08-21T07:36:51.575Z,58.04
2018-08-21T07:37:52.972Z,57.94
2018-08-21T07:38:54.367Z,57.37
2018-08-21T07:39:55.764Z,57.37
2018-08-21T07:40:57.161Z,57.75
2018-08-21T07:41:58.565Z,58.14
2018-08-21T07:42:59.957Z,58.14
2018-08-21T07:44:01.358Z,57.17
2018-08-21T07:45:02.754Z,57.46
2018-08-21T07:46:04.186Z,57.17
2018-08-21T07:47:05.541Z,55.82
2018-08-21T07:48:06.936Z,55.73
2018-08-21T07:49:08.330Z,55.73
2018-08-21T07:50:09.723Z,55.63
2018-08-21T07:51:11.115Z,56.21
2018-08-21T07:52:12.513Z,55.92
2018-08-21T07:53:13.898Z,56.59
2018-08-21T07:54:15.294Z,56.33
2018-08-21T07:55:16.684Z,56.21
2018-08-21T07:56:18.089Z,56.81
2018-08-21T07:57:19.475Z,56.72
2018-08-21T07:58:20.869Z,55.36
2018-08-21T07:59:22.266Z,55.10
2018-08-21T08:00:23.661Z,54.88
2018-08-21T08:01:25.055Z,53.83
2018-08-21T08:02:26.455Z,54.02
2018-08-21T08:03:27.853Z,54.88
2018-08-21T08:04:29.242Z,54.88
2018-08-21T08:05:30.636Z,54.02
2018-08-21T08:06:32.032Z,53.83
2018-08-21T08:07:33.436Z,53.92
2018-08-21T08:08:34.826Z,53.83
2018-08-21T08:09:36.221Z,53.34
2018-08-21T08:10:37.616Z,53.27
2018-08-21T08:11:39.014Z,52.59
2018-08-21T08:12:40.412Z,53.08
2018-08-21T08:13:41.880Z,52.40
2018-08-21T08:14:43.197Z,52.01
2018-08-21T08:15:44.598Z,51.25
2018-08-21T08:16:45.995Z,51.44
2018-08-21T08:17:47.386Z,52.01
2018-08-21T08:18:48.774Z,53.08
2018-08-21T08:19:50.175Z,53.37
2018-08-21T08:20:51.572Z,52.53
2018-08-21T08:21:52.971Z,51.95
2018-08-21T08:22:54.388Z,52.45
2018-08-21T08:23:55.719Z,51.49
2018-08-21T08:24:57.116Z,50.91
2018-08-21T08:25:58.506Z,51.29
2018-08-21T08:26:59.901Z,51.10
2018-08-21T08:28:01.299Z,51.01
2018-08-21T08:29:02.766Z,51.01
2018-08-21T08:30:04.067Z,50.23
2018-08-21T08:31:05.461Z,49.55
2018-08-21T08:32:06.859Z,49.55
2018-08-21T08:33:08.259Z,49.27
2018-08-21T08:34:09.654Z,49.85
2018-08-21T08:35:11.038Z,49.65
2018-08-21T08:36:12.443Z,49.46
2018-08-21T08:37:13.839Z,49.75
2018-08-21T08:38:15.232Z,49.29
2018-08-21T08:39:16.639Z,49.29
2018-08-21T08:40:18.042Z,48.52
2018-08-21T08:41:19.429Z,48.61
2018-08-21T08:42:20.829Z,47.65
2018-08-21T08:43:22.227Z,47.74
2018-08-21T08:44:23.622Z,47.45
2018-08-21T08:45:25.013Z,48.42
2018-08-21T08:46:26.413Z,47.55
2018-08-21T08:47:27.813Z,47.36
2018-08-21T08:48:29.203Z,47.94
2018-08-21T08:49:30.600Z,47.55
2018-08-21T08:50:32.013Z,47.74
2018-08-21T08:51:33.406Z,47.74
2018-08-21T08:52:34.796Z,48.71
2018-08-21T08:53:36.191Z,49.00
2018-08-21T08:54:37.591Z,48.81
2018-08-21T08:55:38.991Z,48.52
2018-08-21T08:56:40.377Z,47.84
2018-08-21T08:57:41.770Z,47.74
2018-08-21T08:58:43.176Z,46.80
2018-08-21T08:59:44.563Z,47.00
2018-08-21T09:00:45.958Z,46.70
2018-08-21T09:01:47.356Z,45.83
2018-08-21T09:02:48.757Z,45.74
2018-08-21T09:03:50.154Z,46.32
2018-08-21T09:04:51.568Z,46.12
2018-08-21T09:05:52.948Z,45.45
2018-08-21T09:06:54.342Z,45.45
2018-08-21T09:07:55.752Z,45.35
2018-08-21T09:08:57.150Z,45.74
2018-08-21T09:09:58.542Z,44.38
2018-08-21T09:10:59.943Z,44.57
2018-08-21T09:12:01.329Z,44.57
2018-08-21T09:13:02.724Z,45.18
2018-08-21T09:14:04.126Z,44.70
2018-08-21T09:15:05.524Z,44.40
2018-08-21T09:16:06.932Z,44.50
2018-08-21T09:17:08.312Z,45.08
2018-08-21T09:18:09.713Z,45.28
2018-08-21T09:19:11.111Z,45.18
2018-08-21T09:20:12.495Z,45.08
2018-08-21T09:21:13.893Z,44.04
2018-08-21T09:22:15.280Z,43.75
2018-08-21T09:23:16.689Z,44.23
2018-08-21T09:24:18.079Z,44.23
2018-08-21T09:25:19.478Z,44.04
2018-08-21T09:26:20.874Z,45.20
2018-08-21T09:27:22.267Z,44.43
2018-08-21T09:28:23.665Z,44.23
2018-08-21T09:29:25.096Z,44.74
2018-08-21T09:30:26.459Z,44.13
2018-08-21T09:31:27.857Z,44.26
2018-08-21T09:32:29.254Z,43.09
2018-08-21T09:33:30.649Z,42.80
2018-08-21T09:34:32.052Z,42.61
2018-08-21T09:35:33.457Z,42.41
2018-08-21T09:36:34.840Z,42.61
2018-08-21T09:37:36.243Z,41.74
2018-08-21T09:38:37.631Z,42.61
2018-08-21T09:39:39.023Z,42.71
2018-08-21T09:40:40.424Z,43.09
2018-08-21T09:41:41.825Z,42.88
2018-08-21T09:42:43.222Z,42.80
2018-08-21T09:43:44.612Z,43.09
2018-08-21T09:44:46.020Z,42.80
2018-08-21T09:45:47.429Z,43.09
2018-08-21T09:46:48.806Z,41.93
2018-08-21T09:47:50.217Z,41.16
2018-08-21T09:48:51.599Z,40.67
2018-08-21T09:49:53.004Z,40.77
2018-08-21T09:50:54.399Z,40.48
2018-08-21T09:51:55.799Z,40.77
2018-08-21T09:52:57.205Z,41.25
2018-08-21T09:53:58.604Z,41.06
2018-08-21T09:54:59.992Z,40.28
2018-08-21T09:56:01.385Z,40.67
2018-08-21T09:57:02.776Z,40.38
2018-08-21T09:58:04.177Z,40.40
2018-08-21T09:59:05.590Z,40.59
2018-08-21T10:00:06.977Z,40.59
2018-08-21T10:01:08.375Z,40.11
2018-08-21T10:02:09.776Z,40.59
2018-08-21T10:03:11.173Z,40.99
2018-08-21T10:04:12.574Z,40.69
2018-08-21T10:05:13.968Z,41.17
2018-08-21T10:06:15.364Z,41.20
2018-08-21T10:07:16.770Z,41.68
2018-08-21T10:08:18.165Z,41.68
2018-08-21T10:09:19.572Z,41.10
2018-08-21T10:10:20.963Z,40.91
2018-08-21T10:11:22.363Z,41.47
2018-08-21T10:12:23.778Z,41.58
2018-08-21T10:13:25.212Z,41.08
2018-08-21T10:14:26.578Z,41.68
2018-08-21T10:15:27.985Z,40.31
2018-08-21T10:16:29.374Z,40.52
2018-08-21T10:17:30.776Z,40.61
2018-08-21T10:18:32.173Z,40.33
2018-08-21T10:19:33.578Z,40.52
2018-08-21T10:20:34.971Z,41.00
2018-08-21T10:21:36.370Z,41.10
2018-08-21T10:22:37.774Z,41.58
2018-08-21T10:23:39.171Z,38.19
2018-08-21T10:24:40.562Z,37.71
2018-08-21T10:25:41.971Z,37.71
2018-08-21T10:26:43.360Z,36.85
2018-08-21T10:27:44.758Z,36.54
2018-08-21T10:28:46.171Z,37.71
2018-08-21T10:29:47.594Z,37.81
2018-08-21T10:30:48.990Z,38.58
2018-08-21T10:31:50.392Z,39.47
2018-08-21T10:32:51.794Z,38.60
2018-08-21T10:33:53.184Z,37.43
2018-08-21T10:34:54.652Z,36.46
2018-08-21T10:35:55.983Z,37.65
2018-08-21T10:36:57.391Z,38.12
2018-08-21T10:37:58.789Z,37.53
2018-08-21T10:39:00.186Z,38.70
2018-08-21T10:40:01.577Z,38.50
2018-08-21T10:41:02.979Z,38.52
2018-08-21T10:42:04.401Z,37.84
2018-08-21T10:43:05.783Z,38.83
2018-08-21T10:44:07.194Z,38.52
2018-08-21T10:45:08.592Z,38.52
2018-08-21T10:46:09.998Z,38.91
2018-08-21T10:47:11.392Z,38.62
2018-08-21T10:48:12.798Z,38.71
2018-08-21T10:49:14.190Z,38.71
2018-08-21T10:50:15.586Z,39.59
2018-08-21T10:51:16.991Z,39.59
2018-08-21T10:52:18.388Z,39.29
2018-08-21T10:53:19.780Z,39.69
2018-08-21T10:54:21.185Z,39.49
2018-08-21T10:55:22.582Z,39.88
2018-08-21T10:56:23.993Z,38.73
2018-08-21T10:57:25.394Z,38.64
2018-08-21T10:58:26.800Z,37.20
2018-08-21T10:59:28.202Z,36.63
2018-08-21T11:00:29.607Z,36.26
2018-08-21T11:01:30.995Z,35.68
2018-08-21T11:02:32.406Z,35.60
2018-08-21T11:03:33.806Z,35.21
2018-08-21T11:04:35.216Z,34.84
2018-08-21T11:05:36.615Z,35.25
2018-08-21T11:06:38.025Z,34.78
2018-08-21T11:07:39.439Z,33.90
2018-08-21T11:08:40.837Z,32.24
2018-08-21T11:09:42.242Z,31.38
2018-08-21T11:10:43.651Z,31.01
2018-08-21T11:11:45.063Z,30.15
2018-08-21T11:12:46.460Z,29.75
2018-08-21T11:13:47.878Z,29.54
2018-08-21T11:14:49.288Z,29.72
2018-08-21T11:15:50.688Z,30.13
2018-08-21T11:16:52.102Z,30.02
2018-08-21T11:17:53.506Z,30.41
2018-08-21T11:18:54.912Z,31.07
2018-08-21T11:19:56.316Z,31.37
2018-08-21T11:20:57.738Z,31.84
2018-08-21T11:21:59.117Z,32.40
2018-08-21T11:23:00.544Z,32.32
2018-08-21T11:24:01.989Z,33.59
2018-08-21T11:25:03.317Z,33.98
2018-08-21T11:26:04.724Z,34.56
2018-08-21T11:27:06.114Z,34.56
2018-08-21T11:28:07.523Z,34.37
2018-08-21T11:29:08.929Z,34.66
2018-08-21T11:30:10.339Z,34.45
2018-08-21T11:31:11.739Z,34.64
2018-08-21T11:32:13.136Z,34.55
2018-08-21T11:33:14.542Z,34.35
2018-08-21T11:34:15.958Z,34.33
2018-08-21T11:35:17.363Z,33.85
2018-08-21T11:36:18.763Z,34.43
2018-08-21T11:37:20.171Z,34.72
2018-08-21T11:38:21.579Z,35.19
2018-08-21T11:39:22.981Z,35.68
2018-08-21T11:40:24.387Z,35.97
2018-08-21T11:41:25.791Z,35.49
2018-08-21T11:42:27.207Z,35.66
2018-08-21T11:43:28.616Z,36.24
2018-08-21T11:44:30.018Z,36.15
2018-08-21T11:45:31.425Z,35.76
2018-08-21T11:46:32.828Z,36.54
2018-08-21T11:47:34.224Z,36.61
2018-08-21T11:48:35.625Z,36.42
2018-08-21T11:49:37.031Z,36.54
2018-08-21T11:50:38.422Z,34.67
2018-08-21T11:51:39.840Z,34.58
2018-08-21T11:52:41.235Z,34.67
2018-08-21T11:53:42.639Z,34.59
2018-08-21T11:54:44.035Z,34.50
2018-08-21T11:55:45.438Z,34.77
2018-08-21T11:56:46.852Z,34.40
2018-08-21T11:57:48.252Z,34.50
2018-08-21T11:58:49.646Z,34.67
2018-08-21T11:59:51.065Z,34.28
2018-08-21T12:00:52.436Z,33.99
2018-08-21T12:01:53.841Z,34.28
2018-08-21T12:02:55.239Z,35.25
2018-08-21T12:03:56.631Z,35.45
2018-08-21T12:04:58.037Z,36.22
2018-08-21T12:05:59.434Z,36.71
2018-08-21T12:07:00.848Z,36.81
2018-08-21T12:08:02.238Z,36.71
2018-08-21T12:09:03.698Z,36.71
2018-08-21T12:10:05.002Z,36.52
2018-08-21T12:11:06.400Z,36.04
2018-08-21T12:12:07.797Z,35.94
2018-08-21T12:13:09.198Z,35.55
2018-08-21T12:14:10.584Z,35.72
2018-08-21T12:15:11.991Z,35.92
2018-08-21T12:16:13.388Z,35.94
2018-08-21T12:17:14.780Z,35.72
2018-08-21T12:18:16.185Z,35.53
2018-08-21T12:19:17.583Z,35.33
2018-08-21T12:20:18.980Z,35.82
2018-08-21T12:21:20.390Z,35.53
2018-08-21T12:22:21.793Z,35.63
2018-08-21T12:23:23.188Z,35.51
2018-08-21T12:24:24.598Z,35.63
2018-08-21T12:25:25.992Z,36.11
2018-08-21T12:26:27.390Z,35.80
2018-08-21T12:27:28.799Z,35.41
2018-08-21T12:28:30.197Z,36.19
2018-08-21T12:29:31.595Z,35.41
2018-08-21T12:30:32.979Z,35.43
2018-08-21T12:31:34.376Z,36.02
2018-08-21T12:32:35.778Z,36.21
2018-08-21T12:33:37.171Z,36.60
2018-08-21T12:34:38.560Z,36.21
2018-08-21T12:35:39.979Z,36.11
2018-08-21T12:36:41.360Z,36.21
2018-08-21T12:37:42.755Z,36.38
2018-08-21T12:38:44.154Z,36.79
2018-08-21T12:39:45.556Z,36.99
2018-08-21T12:40:46.944Z,37.55
2018-08-21T12:41:48.349Z,37.26
2018-08-21T12:42:49.746Z,36.58
2018-08-21T12:43:51.168Z,37.16
2018-08-21T12:44:52.571Z,37.55
2018-08-21T12:45:53.956Z,37.07
2018-08-21T12:46:55.345Z,37.55
2018-08-21T12:47:56.754Z,37.65
2018-08-21T12:48:58.152Z,37.55
2018-08-21T12:49:59.547Z,36.97
2018-08-21T12:51:00.952Z,37.45
2018-08-21T12:52:02.346Z,36.87
2018-08-21T12:53:03.741Z,37.84
2018-08-21T12:54:05.180Z,37.55
2018-08-21T12:55:06.593Z,37.07
2018-08-21T12:56:07.980Z,37.55
2018-08-21T12:57:09.382Z,37.74
2018-08-21T12:58:10.772Z,37.16
2018-08-21T12:59:12.191Z,37.65
2018-08-21T13:00:13.599Z,37.45
2018-08-21T13:01:15.003Z,37.16
2018-08-21T13:02:16.392Z,37.35
2018-08-21T13:03:17.797Z,37.45
2018-08-21T13:04:19.199Z,37.45
2018-08-21T13:05:20.592Z,37.84
2018-08-21T13:06:21.993Z,37.57
2018-08-21T13:07:23.381Z,37.86
2018-08-21T13:08:24.768Z,37.84
2018-08-21T13:09:26.163Z,37.26
2018-08-21T13:10:27.588Z,37.16